sensor_id;sensor_type;location;lat;lon;timestamp;temperature;humidity
7204;DHT22;3643;52.460;13.322;2023-02-28T00:01:43;1.90;99.90
7204;DHT22;3643;52.460;13.322;2023-02-28T00:04:12;1.90;99.90
7204;DHT22;3643;52.460;13.322;2023-02-28T00:06:40;1.90;99.90
7204;DHT22;3643;52.460;13.322;2023-02-28T00:09:12;1.90;99.90
7204;DHT22;3643;52.460;13.322;2023-02-28T00:11:40;1.90;99.90
7204;DHT22;3643;52.460;13.322;2023-02-28T00:14:09;1.90;99.90
7204;DHT22;3643;52.460;13.322;2023-02-28T00:16:37;1.90;99.90
7204;DHT22;3643;52.460;13.322;2023-02-28T00:19:06;1.90;99.90
7204;DHT22;3643;52.460;13.322;2023-02-28T00:21:35;1.80;99.90
7204;DHT22;3643;52.460;13.322;2023-02-28T00:24:04;1.80;99.90
7204;DHT22;3643;52.460;13.322;2023-02-28T00:26:34;1.80;99.90
7204;DHT22;3643;52.460;13.322;2023-02-28T00:29:02;1.80;99.90
7204;DHT22;3643;52.460;13.322;2023-02-28T00:31:31;1.80;99.90
7204;DHT22;3643;52.460;13.322;2023-02-28T00:34:00;1.80;99.90
7204;DHT22;3643;52.460;13.322;2023-02-28T00:36:28;1.80;99.90
7204;DHT22;3643;52.460;13.322;2023-02-28T00:38:56;1.80;99.90
7204;DHT22;3643;52.460;13.322;2023-02-28T00:41:25;1.80;99.90
7204;DHT22;3643;52.460;13.322;2023-02-28T00:43:55;1.80;99.90
7204;DHT22;3643;52.460;13.322;2023-02-28T00:46:24;1.70;99.90
7204;DHT22;3643;52.460;13.322;2023-02-28T00:48:53;1.70;99.90
7204;DHT22;3643;52.460;13.322;2023-02-28T00:51:21;1.70;99.90
7204;DHT22;3643;52.460;13.322;2023-02-28T00:53:50;1.70;99.90
7204;DHT22;3643;52.460;13.322;2023-02-28T00:56:18;1.70;99.90
7204;DHT22;3643;52.460;13.322;2023-02-28T00:58:46;1.70;99.90
7204;DHT22;3643;52.460;13.322;2023-02-28T01:01:16;1.70;99.90
7204;DHT22;3643;52.460;13.322;2023-02-28T01:03:45;1.70;99.90
7204;DHT22;3643;52.460;13.322;2023-02-28T01:06:13;1.70;99.90
7204;DHT22;3643;52.460;13.322;2023-02-28T01:08:41;1.70;99.90
7204;DHT22;3643;52.460;13.322;2023-02-28T01:11:11;1.60;99.90
7204;DHT22;3643;52.460;13.322;2023-02-28T01:13:40;1.60;99.90
7204;DHT22;3643;52.460;13.322;2023-02-28T01:16:08;1.60;99.90
7204;DHT22;3643;52.460;13.322;2023-02-28T01:18:39;1.60;99.90
7204;DHT22;3643;52.460;13.322;2023-02-28T01:21:09;1.50;99.90
7204;DHT22;3643;52.460;13.322;2023-02-28T01:23:39;1.50;99.90
7204;DHT22;3643;52.460;13.322;2023-02-28T01:26:10;1.50;99.90
7204;DHT22;3643;52.460;13.322;2023-02-28T01:28:39;1.50;99.90
7204;DHT22;3643;52.460;13.322;2023-02-28T01:31:08;1.50;99.90
7204;DHT22;3643;52.460;13.322;2023-02-28T01:33:39;1.40;99.90
7204;DHT22;3643;52.460;13.322;2023-02-28T01:36:11;1.40;99.90
7204;DHT22;3643;52.460;13.322;2023-02-28T01:38:39;1.40;99.90
7204;DHT22;3643;52.460;13.322;2023-02-28T01:41:10;1.30;99.90
7204;DHT22;3643;52.460;13.322;2023-02-28T01:44:04;1.20;99.90
7204;DHT22;3643;52.460;13.322;2023-02-28T01:46:34;1.20;99.90
7204;DHT22;3643;52.460;13.322;2023-02-28T01:49:11;1.20;99.90
7204;DHT22;3643;52.460;13.322;2023-02-28T01:51:42;1.20;99.90
7204;DHT22;3643;52.460;13.322;2023-02-28T01:54:16;1.20;99.90
7204;DHT22;3643;52.460;13.322;2023-02-28T01:56:47;1.10;99.90
7204;DHT22;3643;52.460;13.322;2023-02-28T01:59:21;1.10;99.90
7204;DHT22;3643;52.460;13.322;2023-02-28T02:01:50;1.00;99.90
7204;DHT22;3643;52.460;13.322;2023-02-28T02:04:21;1.00;99.90
7204;DHT22;3643;52.460;13.322;2023-02-28T02:06:52;0.90;99.90
7204;DHT22;3643;52.460;13.322;2023-02-28T02:09:20;0.80;99.90
7204;DHT22;3643;52.460;13.322;2023-02-28T02:11:50;0.70;99.90
7204;DHT22;3643;52.460;13.322;2023-02-28T02:14:47;0.60;99.90
7204;DHT22;3643;52.460;13.322;2023-02-28T02:17:25;0.60;99.90
7204;DHT22;3643;52.460;13.322;2023-02-28T02:20:42;0.50;99.90
7204;DHT22;3643;52.460;13.322;2023-02-28T02:23:30;0.40;99.90
7204;DHT22;3643;52.460;13.322;2023-02-28T02:26:16;0.30;99.90
7204;DHT22;3643;52.460;13.322;2023-02-28T02:32:17;0.20;99.90
7204;DHT22;3643;52.460;13.322;2023-02-28T02:34:57;0.00;99.90
7204;DHT22;3643;52.460;13.322;2023-02-28T02:37:36;0.00;99.90
7204;DHT22;3643;52.460;13.322;2023-02-28T02:40:12;0.10;99.90
7204;DHT22;3643;52.460;13.322;2023-02-28T02:42:47;0.10;99.90
7204;DHT22;3643;52.460;13.322;2023-02-28T02:45:22;0.10;99.90
7204;DHT22;3643;52.460;13.322;2023-02-28T02:47:52;0.00;99.90
7204;DHT22;3643;52.460;13.322;2023-02-28T02:50:25;-0.10;99.90
7204;DHT22;3643;52.460;13.322;2023-02-28T02:52:57;-0.20;99.90
7204;DHT22;3643;52.460;13.322;2023-02-28T02:55:27;-0.20;99.90
7204;DHT22;3643;52.460;13.322;2023-02-28T02:58:01;-0.30;99.90
7204;DHT22;3643;52.460;13.322;2023-02-28T03:00:34;-0.40;99.90
7204;DHT22;3643;52.460;13.322;2023-02-28T03:03:05;0.90;99.90
7204;DHT22;3643;52.460;13.322;2023-02-28T03:05:44;-0.50;99.90
7204;DHT22;3643;52.460;13.322;2023-02-28T03:08:14;-0.50;99.90
7204;DHT22;3643;52.460;13.322;2023-02-28T03:10:44;-0.60;99.90
7204;DHT22;3643;52.460;13.322;2023-02-28T03:16:49;-0.50;99.90
7204;DHT22;3643;52.460;13.322;2023-02-28T03:19:39;-0.40;99.90
7204;DHT22;3643;52.460;13.322;2023-02-28T03:22:27;-0.40;99.90
7204;DHT22;3643;52.460;13.322;2023-02-28T03:25:10;-0.30;99.90
7204;DHT22;3643;52.460;13.322;2023-02-28T03:27:45;-0.30;99.90
7204;DHT22;3643;52.460;13.322;2023-02-28T03:30:22;0.50;99.90
7204;DHT22;3643;52.460;13.322;2023-02-28T03:32:56;-0.50;99.90
7204;DHT22;3643;52.460;13.322;2023-02-28T03:35:28;-0.50;99.90
7204;DHT22;3643;52.460;13.322;2023-02-28T03:38:05;-0.60;99.90
7204;DHT22;3643;52.460;13.322;2023-02-28T03:40:37;-0.60;99.90
7204;DHT22;3643;52.460;13.322;2023-02-28T03:43:10;-0.60;99.90
7204;DHT22;3643;52.460;13.322;2023-02-28T03:45:42;-0.60;99.90
7204;DHT22;3643;52.460;13.322;2023-02-28T03:48:15;-0.60;99.90
7204;DHT22;3643;52.460;13.322;2023-02-28T03:50:48;-0.50;99.90
7204;DHT22;3643;52.460;13.322;2023-02-28T03:53:21;-0.60;99.90
7204;DHT22;3643;52.460;13.322;2023-02-28T03:55:54;-0.60;99.90
7204;DHT22;3643;52.460;13.322;2023-02-28T03:58:29;-0.60;99.90
7204;DHT22;3643;52.460;13.322;2023-02-28T04:01:04;-0.70;99.90
7204;DHT22;3643;52.460;13.322;2023-02-28T04:03:36;-0.80;99.90
7204;DHT22;3643;52.460;13.322;2023-02-28T04:06:07;-0.90;99.90
7204;DHT22;3643;52.460;13.322;2023-02-28T04:08:37;-0.90;99.90
7204;DHT22;3643;52.460;13.322;2023-02-28T04:11:16;-1.00;99.90
7204;DHT22;3643;52.460;13.322;2023-02-28T04:13:46;-1.00;99.90
7204;DHT22;3643;52.460;13.322;2023-02-28T04:16:15;-1.10;99.90
7204;DHT22;3643;52.460;13.322;2023-02-28T04:19:00;-1.10;99.90
7204;DHT22;3643;52.460;13.322;2023-02-28T04:21:32;-1.10;99.90
7204;DHT22;3643;52.460;13.322;2023-02-28T04:24:04;-1.20;99.90
7204;DHT22;3643;52.460;13.322;2023-02-28T04:26:36;-1.20;99.90
7204;DHT22;3643;52.460;13.322;2023-02-28T04:29:07;-1.20;99.90
7204;DHT22;3643;52.460;13.322;2023-02-28T04:31:36;-1.20;99.90
7204;DHT22;3643;52.460;13.322;2023-02-28T04:34:06;-1.20;99.90
7204;DHT22;3643;52.460;13.322;2023-02-28T04:36:34;-1.20;99.90
7204;DHT22;3643;52.460;13.322;2023-02-28T04:39:04;-1.20;99.90
7204;DHT22;3643;52.460;13.322;2023-02-28T04:41:33;-1.20;99.90
7204;DHT22;3643;52.460;13.322;2023-02-28T04:44:01;-0.90;99.90
7204;DHT22;3643;52.460;13.322;2023-02-28T04:46:30;-1.30;99.90
7204;DHT22;3643;52.460;13.322;2023-02-28T04:48:59;-1.30;99.90
7204;DHT22;3643;52.460;13.322;2023-02-28T04:51:27;-1.30;99.90
7204;DHT22;3643;52.460;13.322;2023-02-28T04:53:57;-1.30;99.90
7204;DHT22;3643;52.460;13.322;2023-02-28T04:56:27;-1.30;99.90
7204;DHT22;3643;52.460;13.322;2023-02-28T04:58:55;-0.30;99.90
7204;DHT22;3643;52.460;13.322;2023-02-28T05:01:25;-1.30;99.90
7204;DHT22;3643;52.460;13.322;2023-02-28T05:03:57;-1.30;99.90
7204;DHT22;3643;52.460;13.322;2023-02-28T05:06:27;-1.30;99.90
7204;DHT22;3643;52.460;13.322;2023-02-28T05:08:56;-1.20;99.90
7204;DHT22;3643;52.460;13.322;2023-02-28T05:11:27;-1.10;99.90
7204;DHT22;3643;52.460;13.322;2023-02-28T05:14:00;-0.90;99.90
7204;DHT22;3643;52.460;13.322;2023-02-28T05:16:29;-1.10;99.90
7204;DHT22;3643;52.460;13.322;2023-02-28T05:18:57;-1.00;99.90
7204;DHT22;3643;52.460;13.322;2023-02-28T05:21:30;-1.10;99.90
7204;DHT22;3643;52.460;13.322;2023-02-28T05:24:00;-1.10;99.90
7204;DHT22;3643;52.460;13.322;2023-02-28T05:26:30;-1.10;99.90
7204;DHT22;3643;52.460;13.322;2023-02-28T05:28:59;-1.10;99.90
7204;DHT22;3643;52.460;13.322;2023-02-28T05:31:27;-1.20;99.90
7204;DHT22;3643;52.460;13.322;2023-02-28T05:33:55;-1.20;99.90
7204;DHT22;3643;52.460;13.322;2023-02-28T05:36:24;-1.20;99.90
7204;DHT22;3643;52.460;13.322;2023-02-28T05:38:52;-1.20;99.90
7204;DHT22;3643;52.460;13.322;2023-02-28T05:41:20;-1.20;99.90
7204;DHT22;3643;52.460;13.322;2023-02-28T05:43:50;-1.30;99.90
7204;DHT22;3643;52.460;13.322;2023-02-28T05:46:18;-1.30;99.90
7204;DHT22;3643;52.460;13.322;2023-02-28T05:48:47;-1.20;99.90
7204;DHT22;3643;52.460;13.322;2023-02-28T05:51:16;-1.20;99.90
7204;DHT22;3643;52.460;13.322;2023-02-28T05:53:44;-1.20;99.90
7204;DHT22;3643;52.460;13.322;2023-02-28T05:56:12;-1.20;99.90
7204;DHT22;3643;52.460;13.322;2023-02-28T05:58:40;-1.20;99.90
7204;DHT22;3643;52.460;13.322;2023-02-28T06:01:35;-1.30;99.90
7204;DHT22;3643;52.460;13.322;2023-02-28T06:04:04;-1.30;99.90
7204;DHT22;3643;52.460;13.322;2023-02-28T06:06:33;-1.30;99.90
7204;DHT22;3643;52.460;13.322;2023-02-28T06:09:03;-1.30;99.90
7204;DHT22;3643;52.460;13.322;2023-02-28T06:11:31;-1.30;99.90
7204;DHT22;3643;52.460;13.322;2023-02-28T06:14:00;-1.30;99.90
7204;DHT22;3643;52.460;13.322;2023-02-28T06:16:32;-1.50;99.90
7204;DHT22;3643;52.460;13.322;2023-02-28T06:19:03;-1.20;99.90
7204;DHT22;3643;52.460;13.322;2023-02-28T06:21:31;-1.10;99.90
7204;DHT22;3643;52.460;13.322;2023-02-28T06:23:59;-1.10;99.90
7204;DHT22;3643;52.460;13.322;2023-02-28T06:26:28;-1.10;99.90
7204;DHT22;3643;52.460;13.322;2023-02-28T06:28:56;-1.00;99.90
7204;DHT22;3643;52.460;13.322;2023-02-28T06:31:24;-1.00;99.90
7204;DHT22;3643;52.460;13.322;2023-02-28T06:33:57;-1.00;99.90
7204;DHT22;3643;52.460;13.322;2023-02-28T06:36:25;-0.90;99.90
7204;DHT22;3643;52.460;13.322;2023-02-28T06:38:54;-0.90;99.90
7204;DHT22;3643;52.460;13.322;2023-02-28T06:41:23;-0.80;99.90
7204;DHT22;3643;52.460;13.322;2023-02-28T06:43:52;-0.70;99.90
7204;DHT22;3643;52.460;13.322;2023-02-28T06:46:21;-0.60;99.90
7204;DHT22;3643;52.460;13.322;2023-02-28T06:48:49;-0.50;99.90
7204;DHT22;3643;52.460;13.322;2023-02-28T06:51:20;0.10;99.90
7204;DHT22;3643;52.460;13.322;2023-02-28T06:53:51;1.10;99.90
7204;DHT22;3643;52.460;13.322;2023-02-28T06:56:20;2.70;99.90
7204;DHT22;3643;52.460;13.322;2023-02-28T06:58:49;4.40;99.90
7204;DHT22;3643;52.460;13.322;2023-02-28T07:01:17;6.20;99.90
7204;DHT22;3643;52.460;13.322;2023-02-28T07:03:46;7.80;99.90
7204;DHT22;3643;52.460;13.322;2023-02-28T07:06:20;9.10;99.90
7204;DHT22;3643;52.460;13.322;2023-02-28T07:08:50;10.30;99.90
7204;DHT22;3643;52.460;13.322;2023-02-28T07:11:19;11.30;99.90
7204;DHT22;3643;52.460;13.322;2023-02-28T07:13:49;12.20;99.00
7204;DHT22;3643;52.460;13.322;2023-02-28T07:16:18;12.90;97.50
7204;DHT22;3643;52.460;13.322;2023-02-28T07:18:46;13.70;96.20
7204;DHT22;3643;52.460;13.322;2023-02-28T07:21:15;14.30;94.90
7204;DHT22;3643;52.460;13.322;2023-02-28T07:23:44;14.70;92.60
7204;DHT22;3643;52.460;13.322;2023-02-28T07:26:14;14.70;92.50
7204;DHT22;3643;52.460;13.322;2023-02-28T07:28:45;15.40;91.90
7204;DHT22;3643;52.460;13.322;2023-02-28T07:31:14;15.80;90.70
7204;DHT22;3643;52.460;13.322;2023-02-28T07:33:43;15.30;87.00
7204;DHT22;3643;52.460;13.322;2023-02-28T07:36:13;13.80;85.60
7204;DHT22;3643;52.460;13.322;2023-02-28T07:38:44;12.00;86.60
7204;DHT22;3643;52.460;13.322;2023-02-28T07:41:14;10.20;88.30
7204;DHT22;3643;52.460;13.322;2023-02-28T07:43:43;8.80;90.20
7204;DHT22;3643;52.460;13.322;2023-02-28T07:46:14;7.50;91.10
7204;DHT22;3643;52.460;13.322;2023-02-28T07:48:43;6.50;91.90
7204;DHT22;3643;52.460;13.322;2023-02-28T07:51:11;5.40;92.70
7204;DHT22;3643;52.460;13.322;2023-02-28T07:53:40;4.70;93.70
7204;DHT22;3643;52.460;13.322;2023-02-28T07:56:09;4.20;94.70
7204;DHT22;3643;52.460;13.322;2023-02-28T07:58:38;3.90;95.60
7204;DHT22;3643;52.460;13.322;2023-02-28T08:01:07;3.60;96.20
7204;DHT22;3643;52.460;13.322;2023-02-28T08:03:36;3.40;96.50
7204;DHT22;3643;52.460;13.322;2023-02-28T08:06:06;3.30;96.50
7204;DHT22;3643;52.460;13.322;2023-02-28T08:08:35;3.20;97.20
7204;DHT22;3643;52.460;13.322;2023-02-28T08:11:03;3.10;96.20
7204;DHT22;3643;52.460;13.322;2023-02-28T08:13:33;3.00;96.20
7204;DHT22;3643;52.460;13.322;2023-02-28T08:16:01;3.00;96.60
7204;DHT22;3643;52.460;13.322;2023-02-28T08:18:30;2.90;96.60
7204;DHT22;3643;52.460;13.322;2023-02-28T08:21:04;2.90;96.60
7204;DHT22;3643;52.460;13.322;2023-02-28T08:23:33;2.90;95.90
7204;DHT22;3643;52.460;13.322;2023-02-28T08:26:02;2.80;95.10
7204;DHT22;3643;52.460;13.322;2023-02-28T08:28:31;2.80;95.40
7204;DHT22;3643;52.460;13.322;2023-02-28T08:31:00;2.90;95.40
7204;DHT22;3643;52.460;13.322;2023-02-28T08:33:29;2.90;95.30
7204;DHT22;3643;52.460;13.322;2023-02-28T08:35:58;3.00;95.50
7204;DHT22;3643;52.460;13.322;2023-02-28T08:38:26;3.00;95.50
7204;DHT22;3643;52.460;13.322;2023-02-28T08:40:57;3.00;94.30
7204;DHT22;3643;52.460;13.322;2023-02-28T08:43:26;3.00;94.40
7204;DHT22;3643;52.460;13.322;2023-02-28T08:45:55;3.00;93.10
7204;DHT22;3643;52.460;13.322;2023-02-28T08:48:26;3.10;93.30
7204;DHT22;3643;52.460;13.322;2023-02-28T08:50:55;3.10;92.80
7204;DHT22;3643;52.460;13.322;2023-02-28T08:53:33;3.10;93.00
7204;DHT22;3643;52.460;13.322;2023-02-28T08:56:03;3.10;93.20
7204;DHT22;3643;52.460;13.322;2023-02-28T08:58:32;3.10;92.50
7204;DHT22;3643;52.460;13.322;2023-02-28T09:01:06;3.10;92.80
7204;DHT22;3643;52.460;13.322;2023-02-28T09:03:36;3.20;92.80
7204;DHT22;3643;52.460;13.322;2023-02-28T09:06:05;3.20;93.40
7204;DHT22;3643;52.460;13.322;2023-02-28T09:08:33;3.30;94.60
7204;DHT22;3643;52.460;13.322;2023-02-28T09:11:01;3.40;93.60
7204;DHT22;3643;52.460;13.322;2023-02-28T09:13:31;3.40;93.00
7204;DHT22;3643;52.460;13.322;2023-02-28T09:16:00;3.40;92.90
7204;DHT22;3643;52.460;13.322;2023-02-28T09:18:29;3.40;92.60
7204;DHT22;3643;52.460;13.322;2023-02-28T09:20:59;3.40;92.60
7204;DHT22;3643;52.460;13.322;2023-02-28T09:23:30;3.50;92.80
7204;DHT22;3643;52.460;13.322;2023-02-28T09:25:58;3.50;92.40
7204;DHT22;3643;52.460;13.322;2023-02-28T09:28:26;3.40;92.30
7204;DHT22;3643;52.460;13.322;2023-02-28T09:30:55;3.50;92.30
7204;DHT22;3643;52.460;13.322;2023-02-28T09:33:25;3.60;92.30
7204;DHT22;3643;52.460;13.322;2023-02-28T09:36:00;3.40;92.30
7204;DHT22;3643;52.460;13.322;2023-02-28T09:38:28;3.50;92.50
7204;DHT22;3643;52.460;13.322;2023-02-28T09:40:58;3.50;92.60
7204;DHT22;3643;52.460;13.322;2023-02-28T09:43:32;3.60;92.70
7204;DHT22;3643;52.460;13.322;2023-02-28T09:46:08;3.60;92.50
7204;DHT22;3643;52.460;13.322;2023-02-28T09:48:45;3.60;92.30
7204;DHT22;3643;52.460;13.322;2023-02-28T09:51:31;3.60;92.20
7204;DHT22;3643;52.460;13.322;2023-02-28T09:54:01;3.70;92.60
7204;DHT22;3643;52.460;13.322;2023-02-28T09:56:33;3.80;92.30
7204;DHT22;3643;52.460;13.322;2023-02-28T09:59:13;3.80;92.50
7204;DHT22;3643;52.460;13.322;2023-02-28T10:01:48;3.90;92.10
7204;DHT22;3643;52.460;13.322;2023-02-28T10:04:40;3.80;92.00
7204;DHT22;3643;52.460;13.322;2023-02-28T10:07:22;3.70;92.00
7204;DHT22;3643;52.460;13.322;2023-02-28T10:09:55;3.70;92.10
7204;DHT22;3643;52.460;13.322;2023-02-28T10:12:26;3.80;92.80
7204;DHT22;3643;52.460;13.322;2023-02-28T10:14:58;3.90;92.10
7204;DHT22;3643;52.460;13.322;2023-02-28T10:17:36;3.90;92.10
7204;DHT22;3643;52.460;13.322;2023-02-28T10:20:23;3.90;92.10
7204;DHT22;3643;52.460;13.322;2023-02-28T10:23:02;4.00;92.20
7204;DHT22;3643;52.460;13.322;2023-02-28T10:25:35;4.10;92.50
7204;DHT22;3643;52.460;13.322;2023-02-28T10:28:10;4.10;91.80
7204;DHT22;3643;52.460;13.322;2023-02-28T10:30:42;4.10;91.60
7204;DHT22;3643;52.460;13.322;2023-02-28T10:33:22;4.10;91.50
7204;DHT22;3643;52.460;13.322;2023-02-28T10:35:51;4.10;91.40
7204;DHT22;3643;52.460;13.322;2023-02-28T10:38:23;4.10;91.60
7204;DHT22;3643;52.460;13.322;2023-02-28T10:41:03;4.10;91.70
7204;DHT22;3643;52.460;13.322;2023-02-28T10:43:32;4.10;91.40
7204;DHT22;3643;52.460;13.322;2023-02-28T10:46:03;4.10;91.40
7204;DHT22;3643;52.460;13.322;2023-02-28T10:48:37;4.20;91.70
7204;DHT22;3643;52.460;13.322;2023-02-28T10:51:08;4.20;91.90
7204;DHT22;3643;52.460;13.322;2023-02-28T10:53:45;4.20;91.60
7204;DHT22;3643;52.460;13.322;2023-02-28T10:56:27;4.10;91.70
7204;DHT22;3643;52.460;13.322;2023-02-28T10:59:00;4.20;91.60
7204;DHT22;3643;52.460;13.322;2023-02-28T11:01:37;4.10;91.60
7204;DHT22;3643;52.460;13.322;2023-02-28T11:04:17;4.20;91.70
7204;DHT22;3643;52.460;13.322;2023-02-28T11:06:46;4.20;91.90
7204;DHT22;3643;52.460;13.322;2023-02-28T11:09:22;4.30;91.80
7204;DHT22;3643;52.460;13.322;2023-02-28T11:11:51;4.30;91.80
7204;DHT22;3643;52.460;13.322;2023-02-28T11:14:22;4.30;91.80
7204;DHT22;3643;52.460;13.322;2023-02-28T11:16:52;4.40;91.50
7204;DHT22;3643;52.460;13.322;2023-02-28T11:19:24;4.40;91.40
7204;DHT22;3643;52.460;13.322;2023-02-28T11:21:55;4.40;91.40
7204;DHT22;3643;52.460;13.322;2023-02-28T11:24:28;4.40;91.60
7204;DHT22;3643;52.460;13.322;2023-02-28T11:26:57;4.40;91.50
7204;DHT22;3643;52.460;13.322;2023-02-28T11:29:28;4.40;91.50
7204;DHT22;3643;52.460;13.322;2023-02-28T11:32:13;4.60;91.40
7204;DHT22;3643;52.460;13.322;2023-02-28T11:34:42;4.60;90.60
7204;DHT22;3643;52.460;13.322;2023-02-28T11:37:13;4.50;90.80
7204;DHT22;3643;52.460;13.322;2023-02-28T11:39:45;4.60;91.20
7204;DHT22;3643;52.460;13.322;2023-02-28T11:42:36;4.70;90.90
7204;DHT22;3643;52.460;13.322;2023-02-28T11:45:21;4.60;90.60
7204;DHT22;3643;52.460;13.322;2023-02-28T11:47:58;4.60;90.50
7204;DHT22;3643;52.460;13.322;2023-02-28T11:50:42;4.50;90.80
7204;DHT22;3643;52.460;13.322;2023-02-28T11:53:19;4.60;91.10
7204;DHT22;3643;52.460;13.322;2023-02-28T11:55:54;4.70;90.90
7204;DHT22;3643;52.460;13.322;2023-02-28T11:58:32;4.60;91.10
7204;DHT22;3643;52.460;13.322;2023-02-28T12:01:23;4.60;91.20
7204;DHT22;3643;52.460;13.322;2023-02-28T12:04:02;4.70;91.30
7204;DHT22;3643;52.460;13.322;2023-02-28T12:06:38;4.80;91.10
7204;DHT22;3643;52.460;13.322;2023-02-28T12:09:29;4.80;90.60
7204;DHT22;3643;52.460;13.322;2023-02-28T12:12:07;4.80;91.00
7204;DHT22;3643;52.460;13.322;2023-02-28T12:15:22;4.80;90.80
7204;DHT22;3643;52.460;13.322;2023-02-28T12:18:00;4.80;90.70
7204;DHT22;3643;52.460;13.322;2023-02-28T12:20:38;4.80;90.90
7204;DHT22;3643;52.460;13.322;2023-02-28T12:26:12;4.80;90.70
7204;DHT22;3643;52.460;13.322;2023-02-28T12:28:47;4.80;91.00
7204;DHT22;3643;52.460;13.322;2023-02-28T12:31:19;4.80;91.00
7204;DHT22;3643;52.460;13.322;2023-02-28T12:33:53;4.70;91.10
7204;DHT22;3643;52.460;13.322;2023-02-28T12:36:21;4.70;90.90
7204;DHT22;3643;52.460;13.322;2023-02-28T12:38:55;4.80;92.50
7204;DHT22;3643;52.460;13.322;2023-02-28T12:41:29;4.80;91.60
7204;DHT22;3643;52.460;13.322;2023-02-28T12:44:03;4.90;91.70
7204;DHT22;3643;52.460;13.322;2023-02-28T12:46:35;5.00;91.70
7204;DHT22;3643;52.460;13.322;2023-02-28T12:49:08;4.90;92.00
7204;DHT22;3643;52.460;13.322;2023-02-28T12:51:39;4.90;92.10
7204;DHT22;3643;52.460;13.322;2023-02-28T12:54:14;4.90;91.80
7204;DHT22;3643;52.460;13.322;2023-02-28T12:56:49;5.00;91.80
7204;DHT22;3643;52.460;13.322;2023-02-28T12:59:27;4.90;91.70
7204;DHT22;3643;52.460;13.322;2023-02-28T13:05:07;4.90;92.10
7204;DHT22;3643;52.460;13.322;2023-02-28T13:10:43;5.00;91.90
7204;DHT22;3643;52.460;13.322;2023-02-28T13:13:17;5.10;92.00
7204;DHT22;3643;52.460;13.322;2023-02-28T13:16:04;5.10;91.80
7204;DHT22;3643;52.460;13.322;2023-02-28T13:18:36;5.10;91.80
7204;DHT22;3643;52.460;13.322;2023-02-28T13:21:07;5.10;91.50
7204;DHT22;3643;52.460;13.322;2023-02-28T13:29:42;5.10;92.10
7204;DHT22;3643;52.460;13.322;2023-02-28T13:32:42;5.10;92.20
7204;DHT22;3643;52.460;13.322;2023-02-28T13:35:36;5.20;92.20
7204;DHT22;3643;52.460;13.322;2023-02-28T13:38:22;5.20;92.10
7204;DHT22;3643;52.460;13.322;2023-02-28T13:40:51;5.20;92.10
7204;DHT22;3643;52.460;13.322;2023-02-28T13:43:19;5.20;91.60
7204;DHT22;3643;52.460;13.322;2023-02-28T13:46:11;5.20;91.40
7204;DHT22;3643;52.460;13.322;2023-02-28T13:48:41;5.20;90.80
7204;DHT22;3643;52.460;13.322;2023-02-28T13:51:39;5.20;91.00
7204;DHT22;3643;52.460;13.322;2023-02-28T13:54:19;5.10;91.10
7204;DHT22;3643;52.460;13.322;2023-02-28T13:57:03;5.20;91.40
7204;DHT22;3643;52.460;13.322;2023-02-28T13:59:40;5.20;91.00
7204;DHT22;3643;52.460;13.322;2023-02-28T14:02:42;5.20;91.20
7204;DHT22;3643;52.460;13.322;2023-02-28T14:05:16;5.20;91.20
7204;DHT22;3643;52.460;13.322;2023-02-28T14:07:47;5.20;90.90
7204;DHT22;3643;52.460;13.322;2023-02-28T14:10:23;5.20;91.20
7204;DHT22;3643;52.460;13.322;2023-02-28T14:12:55;5.30;91.20
7204;DHT22;3643;52.460;13.322;2023-02-28T14:15:49;5.20;90.60
7204;DHT22;3643;52.460;13.322;2023-02-28T14:18:29;4.60;89.80
7204;DHT22;3643;52.460;13.322;2023-02-28T14:21:03;5.20;90.40
7204;DHT22;3643;52.460;13.322;2023-02-28T14:24:03;5.30;90.80
7204;DHT22;3643;52.460;13.322;2023-02-28T14:26:56;5.30;90.30
7204;DHT22;3643;52.460;13.322;2023-02-28T14:32:41;5.20;90.40
7204;DHT22;3643;52.460;13.322;2023-02-28T14:35:27;5.30;90.30
7204;DHT22;3643;52.460;13.322;2023-02-28T14:37:58;5.30;90.50
7204;DHT22;3643;52.460;13.322;2023-02-28T14:40:29;5.30;90.40
7204;DHT22;3643;52.460;13.322;2023-02-28T14:42:59;5.30;90.40
7204;DHT22;3643;52.460;13.322;2023-02-28T14:45:30;5.30;90.60
7204;DHT22;3643;52.460;13.322;2023-02-28T14:48:01;5.50;90.90
7204;DHT22;3643;52.460;13.322;2023-02-28T14:50:31;5.40;91.10
7204;DHT22;3643;52.460;13.322;2023-02-28T14:53:02;5.30;90.90
7204;DHT22;3643;52.460;13.322;2023-02-28T14:55:33;5.30;91.10
7204;DHT22;3643;52.460;13.322;2023-02-28T14:58:03;5.20;91.00
7204;DHT22;3643;52.460;13.322;2023-02-28T15:00:34;5.20;91.20
7204;DHT22;3643;52.460;13.322;2023-02-28T15:03:18;5.20;91.00
7204;DHT22;3643;52.460;13.322;2023-02-28T15:05:52;5.20;90.80
7204;DHT22;3643;52.460;13.322;2023-02-28T15:08:23;5.20;90.90
7204;DHT22;3643;52.460;13.322;2023-02-28T15:10:54;5.20;91.10
7204;DHT22;3643;52.460;13.322;2023-02-28T15:13:24;5.20;91.20
7204;DHT22;3643;52.460;13.322;2023-02-28T15:15:57;5.10;91.20
7204;DHT22;3643;52.460;13.322;2023-02-28T15:18:33;5.10;91.30
7204;DHT22;3643;52.460;13.322;2023-02-28T15:21:07;5.10;91.30
7204;DHT22;3643;52.460;13.322;2023-02-28T15:23:41;5.00;91.40
7204;DHT22;3643;52.460;13.322;2023-02-28T15:26:13;5.00;91.30
7204;DHT22;3643;52.460;13.322;2023-02-28T15:28:44;5.00;91.30
7204;DHT22;3643;52.460;13.322;2023-02-28T15:31:21;4.90;91.10
7204;DHT22;3643;52.460;13.322;2023-02-28T15:33:56;5.00;92.20
7204;DHT22;3643;52.460;13.322;2023-02-28T15:36:31;4.90;92.40
7204;DHT22;3643;52.460;13.322;2023-02-28T15:39:01;5.00;91.90
7204;DHT22;3643;52.460;13.322;2023-02-28T15:41:41;4.90;91.60
7204;DHT22;3643;52.460;13.322;2023-02-28T15:44:23;4.90;91.40
7204;DHT22;3643;52.460;13.322;2023-02-28T15:46:57;4.90;91.60
7204;DHT22;3643;52.460;13.322;2023-02-28T15:49:27;4.80;91.20
7204;DHT22;3643;52.460;13.322;2023-02-28T15:51:59;4.80;91.40
7204;DHT22;3643;52.460;13.322;2023-02-28T15:54:32;4.70;91.60
7204;DHT22;3643;52.460;13.322;2023-02-28T15:57:04;4.60;91.60
7204;DHT22;3643;52.460;13.322;2023-02-28T15:59:36;4.50;91.10
7204;DHT22;3643;52.460;13.322;2023-02-28T16:02:15;4.50;91.30
7204;DHT22;3643;52.460;13.322;2023-02-28T16:07:42;4.50;91.40
7204;DHT22;3643;52.460;13.322;2023-02-28T16:10:12;4.50;91.20
7204;DHT22;3643;52.460;13.322;2023-02-28T16:12:42;4.50;91.40
7204;DHT22;3643;52.460;13.322;2023-02-28T16:15:18;4.40;91.40
7204;DHT22;3643;52.460;13.322;2023-02-28T16:17:47;4.40;91.50
7204;DHT22;3643;52.460;13.322;2023-02-28T16:20:18;4.40;91.60
7204;DHT22;3643;52.460;13.322;2023-02-28T16:22:47;4.30;91.50
7204;DHT22;3643;52.460;13.322;2023-02-28T16:25:19;4.30;92.00
7204;DHT22;3643;52.460;13.322;2023-02-28T16:27:50;4.10;92.00
7204;DHT22;3643;52.460;13.322;2023-02-28T16:30:22;4.00;92.10
7204;DHT22;3643;52.460;13.322;2023-02-28T16:32:53;3.90;92.40
7204;DHT22;3643;52.460;13.322;2023-02-28T16:35:22;3.90;92.00
7204;DHT22;3643;52.460;13.322;2023-02-28T16:37:52;3.90;92.10
7204;DHT22;3643;52.460;13.322;2023-02-28T16:40:24;4.00;92.30
7204;DHT22;3643;52.460;13.322;2023-02-28T16:42:54;3.90;92.20
7204;DHT22;3643;52.460;13.322;2023-02-28T16:45:26;3.90;92.30
7204;DHT22;3643;52.460;13.322;2023-02-28T16:47:55;3.80;92.50
7204;DHT22;3643;52.460;13.322;2023-02-28T16:50:25;3.80;92.70
7204;DHT22;3643;52.460;13.322;2023-02-28T16:52:56;3.70;92.90
7204;DHT22;3643;52.460;13.322;2023-02-28T16:55:26;3.60;93.20
7204;DHT22;3643;52.460;13.322;2023-02-28T16:57:57;3.50;93.10
7204;DHT22;3643;52.460;13.322;2023-02-28T17:00:26;3.50;93.20
7204;DHT22;3643;52.460;13.322;2023-02-28T17:02:56;3.40;93.40